Main page
METAR-TAF:

METAR-TAF

Airports :

Nîmes–Alès–Camargue–Cévennes Airport

Nîmes, France

latitude: 43-45N, longitude: 004-25E, elevation: 94 m

Current weather observation

The report was made 33 minutes ago, at 19:30 UTC
Wind 3 kt from the West/Southwest
Temperature 25°C
Humidity 65%
Pressure 1015 hPa
Visibility 10 km or more
no clouds below 1500 m and no cumulonimbus

METAR: LFTW 281930Z AUTO 25003KT CAVOK 25/18 Q1015

Time: 22:03 (20:03 UTC)

Forecast

The report was made 6 hours and 3 minutes ago, at 14:00 UTC
Forecast valid from 28 at 15 UTC to 29 at 15 UTC
Wind 10 kt from the Northwest
Visibility 10 km or more
no clouds below 1500 m and no cumulonimbus
Temporary
from 28 at 15 UTC to 28 at 20 UTC
Wind 10 kt from the Southwest
Becoming
from 29 at 04 UTC to 29 at 07 UTC
Wind 10 kt from the North/Northeast
Becoming
from 29 at 11 UTC to 29 at 14 UTC
Wind 12 kt from the South/Southwest

TAF: LFTW 281400Z 2815/2915 32010KT CAVOK TEMPO 2815/2820 23010KT BECMG 2904/2907 02010KT BECMG 2911/2914 20012KT

Weather observations and forecasts of more than 4000 airports (METAR and TAF reports).

The available stations are represented by yellow and red dots on the map.

Hover mouse over dot to see the name of the station.

Then click to see weather observations and forecasts.

To change the map : click on the green buttons with a black cross to zoom in, on the green button with a dash to zoom out, or on the green arrows for adjacent maps.


METAR-TAF: